sensor_id;sensor_type;location;lat;lon;timestamp;P1;durP1;ratioP1;P2;durP2;ratioP2
52494;SDS011;38405;53.212;5.660;2023-07-13T00:01:19;6.97;;;1.52;;
52494;SDS011;38405;53.212;5.660;2023-07-13T00:03:45;7.38;;;1.40;;
52494;SDS011;38405;53.212;5.660;2023-07-13T00:06:11;4.47;;;1.30;;
52494;SDS011;38405;53.212;5.660;2023-07-13T00:08:37;4.97;;;1.45;;
52494;SDS011;38405;53.212;5.660;2023-07-13T00:11:03;6.50;;;1.52;;
52494;SDS011;38405;53.212;5.660;2023-07-13T00:13:29;4.00;;;1.17;;
52494;SDS011;38405;53.212;5.660;2023-07-13T00:15:57;4.47;;;1.33;;
52494;SDS011;38405;53.212;5.660;2023-07-13T00:18:24;4.10;;;1.42;;
52494;SDS011;38405;53.212;5.660;2023-07-13T00:20:49;5.10;;;1.40;;
52494;SDS011;38405;53.212;5.660;2023-07-13T00:23:15;7.03;;;1.05;;
52494;SDS011;38405;53.212;5.660;2023-07-13T00:25:42;4.07;;;1.05;;
52494;SDS011;38405;53.212;5.660;2023-07-13T00:28:08;3.35;;;0.90;;
52494;SDS011;38405;53.212;5.660;2023-07-13T00:30:34;5.60;;;1.27;;
52494;SDS011;38405;53.212;5.660;2023-07-13T00:32:59;3.88;;;1.17;;
52494;SDS011;38405;53.212;5.660;2023-07-13T00:35:26;5.85;;;0.95;;
52494;SDS011;38405;53.212;5.660;2023-07-13T00:37:55;5.82;;;1.02;;
52494;SDS011;38405;53.212;5.660;2023-07-13T00:40:21;2.15;;;0.88;;
52494;SDS011;38405;53.212;5.660;2023-07-13T00:42:47;3.08;;;0.85;;
52494;SDS011;38405;53.212;5.660;2023-07-13T00:47:42;2.63;;;0.88;;
52494;SDS011;38405;53.212;5.660;2023-07-13T00:50:13;4.25;;;1.05;;
52494;SDS011;38405;53.212;5.660;2023-07-13T00:52:41;3.72;;;1.08;;
52494;SDS011;38405;53.212;5.660;2023-07-13T00:55:10;4.53;;;1.17;;
52494;SDS011;38405;53.212;5.660;2023-07-13T00:57:37;4.95;;;0.93;;
52494;SDS011;38405;53.212;5.660;2023-07-13T01:00:04;1.10;;;0.82;;
52494;SDS011;38405;53.212;5.660;2023-07-13T01:02:34;6.40;;;1.25;;
52494;SDS011;38405;53.212;5.660;2023-07-13T01:05:11;2.72;;;0.80;;
52494;SDS011;38405;53.212;5.660;2023-07-13T01:07:39;2.72;;;0.98;;
52494;SDS011;38405;53.212;5.660;2023-07-13T01:10:06;4.95;;;1.08;;
52494;SDS011;38405;53.212;5.660;2023-07-13T01:12:33;3.67;;;1.10;;
52494;SDS011;38405;53.212;5.660;2023-07-13T01:15:00;7.50;;;1.25;;
52494;SDS011;38405;53.212;5.660;2023-07-13T01:17:27;3.47;;;1.00;;
52494;SDS011;38405;53.212;5.660;2023-07-13T01:19:54;7.65;;;1.42;;
52494;SDS011;38405;53.212;5.660;2023-07-13T01:22:20;3.45;;;1.00;;
52494;SDS011;38405;53.212;5.660;2023-07-13T01:24:51;5.18;;;1.15;;
52494;SDS011;38405;53.212;5.660;2023-07-13T01:27:24;4.57;;;1.08;;
52494;SDS011;38405;53.212;5.660;2023-07-13T01:29:51;5.37;;;1.40;;
52494;SDS011;38405;53.212;5.660;2023-07-13T01:32:23;8.77;;;1.85;;
52494;SDS011;38405;53.212;5.660;2023-07-13T01:34:50;7.65;;;1.63;;
52494;SDS011;38405;53.212;5.660;2023-07-13T01:37:19;3.78;;;1.10;;
52494;SDS011;38405;53.212;5.660;2023-07-13T01:39:46;6.10;;;1.63;;
52494;SDS011;38405;53.212;5.660;2023-07-13T01:42:12;3.42;;;1.40;;
52494;SDS011;38405;53.212;5.660;2023-07-13T01:44:39;11.63;;;1.83;;
52494;SDS011;38405;53.212;5.660;2023-07-13T01:47:05;3.55;;;1.33;;
52494;SDS011;38405;53.212;5.660;2023-07-13T01:49:31;4.82;;;2.30;;
52494;SDS011;38405;53.212;5.660;2023-07-13T01:51:56;7.72;;;1.58;;
52494;SDS011;38405;53.212;5.660;2023-07-13T01:54:22;11.45;;;1.75;;
52494;SDS011;38405;53.212;5.660;2023-07-13T01:56:48;5.85;;;1.90;;
52494;SDS011;38405;53.212;5.660;2023-07-13T01:59:14;4.22;;;1.42;;
52494;SDS011;38405;53.212;5.660;2023-07-13T02:01:39;9.13;;;2.00;;
52494;SDS011;38405;53.212;5.660;2023-07-13T02:04:05;8.88;;;1.70;;
52494;SDS011;38405;53.212;5.660;2023-07-13T02:06:31;9.30;;;1.80;;
52494;SDS011;38405;53.212;5.660;2023-07-13T02:08:57;3.30;;;1.30;;
52494;SDS011;38405;53.212;5.660;2023-07-13T02:11:23;10.73;;;2.15;;
52494;SDS011;38405;53.212;5.660;2023-07-13T02:13:50;6.28;;;1.83;;
52494;SDS011;38405;53.212;5.660;2023-07-13T02:16:16;8.82;;;1.70;;
52494;SDS011;38405;53.212;5.660;2023-07-13T02:18:42;9.23;;;2.00;;
52494;SDS011;38405;53.212;5.660;2023-07-13T02:21:07;8.10;;;1.80;;
52494;SDS011;38405;53.212;5.660;2023-07-13T02:23:33;9.15;;;2.20;;
52494;SDS011;38405;53.212;5.660;2023-07-13T02:25:59;9.02;;;2.00;;
52494;SDS011;38405;53.212;5.660;2023-07-13T02:28:27;7.40;;;2.10;;
52494;SDS011;38405;53.212;5.660;2023-07-13T02:30:53;5.80;;;1.58;;
52494;SDS011;38405;53.212;5.660;2023-07-13T02:33:19;11.77;;;1.75;;
52494;SDS011;38405;53.212;5.660;2023-07-13T02:35:44;6.93;;;1.85;;
52494;SDS011;38405;53.212;5.660;2023-07-13T02:38:10;9.10;;;2.17;;
52494;SDS011;38405;53.212;5.660;2023-07-13T02:40:36;7.18;;;1.95;;
52494;SDS011;38405;53.212;5.660;2023-07-13T02:43:03;11.32;;;2.22;;
52494;SDS011;38405;53.212;5.660;2023-07-13T02:45:29;8.68;;;2.00;;
52494;SDS011;38405;53.212;5.660;2023-07-13T02:47:55;6.45;;;1.80;;
52494;SDS011;38405;53.212;5.660;2023-07-13T02:50:20;9.98;;;2.28;;
52494;SDS011;38405;53.212;5.660;2023-07-13T02:52:46;7.05;;;2.08;;
52494;SDS011;38405;53.212;5.660;2023-07-13T02:55:12;5.63;;;2.30;;
52494;SDS011;38405;53.212;5.660;2023-07-13T02:57:37;9.73;;;2.85;;
52494;SDS011;38405;53.212;5.660;2023-07-13T03:00:03;6.93;;;1.98;;
52494;SDS011;38405;53.212;5.660;2023-07-13T03:02:33;7.20;;;2.33;;
52494;SDS011;38405;53.212;5.660;2023-07-13T03:04:59;9.93;;;2.13;;
52494;SDS011;38405;53.212;5.660;2023-07-13T03:07:26;7.53;;;2.13;;
52494;SDS011;38405;53.212;5.660;2023-07-13T03:09:55;11.25;;;2.45;;
52494;SDS011;38405;53.212;5.660;2023-07-13T03:12:22;9.75;;;2.60;;
52494;SDS011;38405;53.212;5.660;2023-07-13T03:14:48;7.05;;;2.13;;
52494;SDS011;38405;53.212;5.660;2023-07-13T03:17:14;10.30;;;2.38;;
52494;SDS011;38405;53.212;5.660;2023-07-13T03:19:40;8.00;;;2.33;;
52494;SDS011;38405;53.212;5.660;2023-07-13T03:22:06;7.90;;;2.20;;
52494;SDS011;38405;53.212;5.660;2023-07-13T03:24:35;7.43;;;2.10;;
52494;SDS011;38405;53.212;5.660;2023-07-13T03:27:03;7.95;;;2.45;;
52494;SDS011;38405;53.212;5.660;2023-07-13T03:29:30;7.50;;;2.30;;
52494;SDS011;38405;53.212;5.660;2023-07-13T03:31:56;7.75;;;2.28;;
52494;SDS011;38405;53.212;5.660;2023-07-13T03:34:22;8.27;;;2.08;;
52494;SDS011;38405;53.212;5.660;2023-07-13T03:36:47;6.63;;;2.25;;
52494;SDS011;38405;53.212;5.660;2023-07-13T03:39:13;10.23;;;2.92;;
52494;SDS011;38405;53.212;5.660;2023-07-13T03:41:39;8.15;;;1.95;;
52494;SDS011;38405;53.212;5.660;2023-07-13T03:44:04;6.30;;;2.45;;
52494;SDS011;38405;53.212;5.660;2023-07-13T03:46:30;8.25;;;2.38;;
52494;SDS011;38405;53.212;5.660;2023-07-13T03:48:56;13.68;;;3.05;;
52494;SDS011;38405;53.212;5.660;2023-07-13T03:51:22;10.27;;;2.72;;
52494;SDS011;38405;53.212;5.660;2023-07-13T03:53:49;12.32;;;2.60;;
52494;SDS011;38405;53.212;5.660;2023-07-13T03:56:15;5.75;;;2.08;;
52494;SDS011;38405;53.212;5.660;2023-07-13T03:58:43;13.73;;;2.53;;
52494;SDS011;38405;53.212;5.660;2023-07-13T04:01:11;11.25;;;2.47;;
52494;SDS011;38405;53.212;5.660;2023-07-13T04:03:38;12.25;;;2.40;;
52494;SDS011;38405;53.212;5.660;2023-07-13T04:06:05;8.77;;;2.20;;
52494;SDS011;38405;53.212;5.660;2023-07-13T04:08:33;14.90;;;2.33;;
52494;SDS011;38405;53.212;5.660;2023-07-13T04:11:00;8.20;;;2.38;;
52494;SDS011;38405;53.212;5.660;2023-07-13T04:13:27;6.75;;;2.30;;
52494;SDS011;38405;53.212;5.660;2023-07-13T04:15:53;4.18;;;1.92;;
52494;SDS011;38405;53.212;5.660;2023-07-13T04:18:19;10.63;;;2.55;;
52494;SDS011;38405;53.212;5.660;2023-07-13T04:20:48;13.57;;;3.20;;
52494;SDS011;38405;53.212;5.660;2023-07-13T04:23:15;5.75;;;2.25;;
52494;SDS011;38405;53.212;5.660;2023-07-13T04:25:45;6.30;;;2.10;;
52494;SDS011;38405;53.212;5.660;2023-07-13T04:28:11;6.13;;;2.30;;
52494;SDS011;38405;53.212;5.660;2023-07-13T04:30:37;7.63;;;2.20;;
52494;SDS011;38405;53.212;5.660;2023-07-13T04:33:03;7.50;;;1.98;;
52494;SDS011;38405;53.212;5.660;2023-07-13T04:35:29;7.45;;;2.03;;
52494;SDS011;38405;53.212;5.660;2023-07-13T04:37:56;6.97;;;1.90;;
52494;SDS011;38405;53.212;5.660;2023-07-13T04:40:22;6.40;;;2.05;;
52494;SDS011;38405;53.212;5.660;2023-07-13T04:42:48;4.68;;;1.85;;
52494;SDS011;38405;53.212;5.660;2023-07-13T04:45:14;7.10;;;1.70;;
52494;SDS011;38405;53.212;5.660;2023-07-13T04:47:40;3.67;;;1.70;;
52494;SDS011;38405;53.212;5.660;2023-07-13T04:50:07;7.78;;;1.38;;
52494;SDS011;38405;53.212;5.660;2023-07-13T04:52:34;6.72;;;1.63;;
52494;SDS011;38405;53.212;5.660;2023-07-13T04:55:00;5.07;;;1.65;;
52494;SDS011;38405;53.212;5.660;2023-07-13T04:57:26;5.03;;;1.83;;
52494;SDS011;38405;53.212;5.660;2023-07-13T04:59:52;6.53;;;1.67;;
52494;SDS011;38405;53.212;5.660;2023-07-13T05:02:20;3.03;;;1.63;;
52494;SDS011;38405;53.212;5.660;2023-07-13T05:04:46;4.05;;;1.83;;
52494;SDS011;38405;53.212;5.660;2023-07-13T05:07:12;7.60;;;1.67;;
52494;SDS011;38405;53.212;5.660;2023-07-13T05:09:38;4.43;;;1.50;;
52494;SDS011;38405;53.212;5.660;2023-07-13T05:12:05;6.28;;;1.67;;
52494;SDS011;38405;53.212;5.660;2023-07-13T05:14:32;8.02;;;1.75;;
52494;SDS011;38405;53.212;5.660;2023-07-13T05:16:58;6.38;;;1.73;;
52494;SDS011;38405;53.212;5.660;2023-07-13T05:19:23;4.35;;;1.65;;
52494;SDS011;38405;53.212;5.660;2023-07-13T05:21:49;3.50;;;1.40;;
52494;SDS011;38405;53.212;5.660;2023-07-13T05:24:15;5.63;;;1.83;;
52494;SDS011;38405;53.212;5.660;2023-07-13T05:26:41;2.78;;;1.27;;
52494;SDS011;38405;53.212;5.660;2023-07-13T05:29:06;5.05;;;1.50;;
52494;SDS011;38405;53.212;5.660;2023-07-13T05:31:32;4.22;;;1.38;;
52494;SDS011;38405;53.212;5.660;2023-07-13T05:33:58;5.35;;;1.63;;
52494;SDS011;38405;53.212;5.660;2023-07-13T05:36:23;3.75;;;1.38;;
52494;SDS011;38405;53.212;5.660;2023-07-13T05:38:49;5.82;;;1.67;;
52494;SDS011;38405;53.212;5.660;2023-07-13T05:41:15;6.95;;;1.30;;
52494;SDS011;38405;53.212;5.660;2023-07-13T05:43:40;3.10;;;1.35;;
52494;SDS011;38405;53.212;5.660;2023-07-13T05:46:06;3.20;;;1.27;;
52494;SDS011;38405;53.212;5.660;2023-07-13T05:48:32;11.40;;;1.30;;
52494;SDS011;38405;53.212;5.660;2023-07-13T05:50:57;4.82;;;1.30;;
52494;SDS011;38405;53.212;5.660;2023-07-13T05:53:23;5.88;;;1.30;;
52494;SDS011;38405;53.212;5.660;2023-07-13T05:55:49;2.55;;;1.25;;
52494;SDS011;38405;53.212;5.660;2023-07-13T05:58:18;2.83;;;1.35;;
52494;SDS011;38405;53.212;5.660;2023-07-13T06:00:45;3.38;;;1.10;;
52494;SDS011;38405;53.212;5.660;2023-07-13T06:03:11;3.10;;;1.17;;
52494;SDS011;38405;53.212;5.660;2023-07-13T06:05:37;5.40;;;1.15;;
52494;SDS011;38405;53.212;5.660;2023-07-13T06:08:04;2.85;;;1.00;;
52494;SDS011;38405;53.212;5.660;2023-07-13T06:10:36;3.08;;;1.10;;
52494;SDS011;38405;53.212;5.660;2023-07-13T06:13:02;4.82;;;1.45;;
52494;SDS011;38405;53.212;5.660;2023-07-13T06:15:28;3.50;;;1.05;;
52494;SDS011;38405;53.212;5.660;2023-07-13T06:17:54;2.97;;;1.10;;
52494;SDS011;38405;53.212;5.660;2023-07-13T06:20:20;3.03;;;1.00;;
52494;SDS011;38405;53.212;5.660;2023-07-13T06:22:46;3.35;;;1.23;;
52494;SDS011;38405;53.212;5.660;2023-07-13T06:25:11;3.40;;;1.00;;
52494;SDS011;38405;53.212;5.660;2023-07-13T06:27:37;3.90;;;1.17;;
52494;SDS011;38405;53.212;5.660;2023-07-13T06:30:03;2.97;;;0.93;;
52494;SDS011;38405;53.212;5.660;2023-07-13T06:32:29;3.53;;;1.20;;
52494;SDS011;38405;53.212;5.660;2023-07-13T06:34:55;4.47;;;1.73;;
52494;SDS011;38405;53.212;5.660;2023-07-13T06:37:21;3.58;;;1.17;;
52494;SDS011;38405;53.212;5.660;2023-07-13T06:39:46;2.90;;;1.73;;
52494;SDS011;38405;53.212;5.660;2023-07-13T06:42:12;4.82;;;1.25;;
52494;SDS011;38405;53.212;5.660;2023-07-13T06:44:38;5.95;;;1.73;;
52494;SDS011;38405;53.212;5.660;2023-07-13T06:47:03;6.75;;;1.30;;
52494;SDS011;38405;53.212;5.660;2023-07-13T06:49:29;2.92;;;1.30;;
52494;SDS011;38405;53.212;5.660;2023-07-13T06:51:55;4.53;;;1.08;;
52494;SDS011;38405;53.212;5.660;2023-07-13T06:54:21;4.97;;;1.30;;
52494;SDS011;38405;53.212;5.660;2023-07-13T06:56:46;4.85;;;1.13;;
52494;SDS011;38405;53.212;5.660;2023-07-13T06:59:12;6.35;;;1.42;;
52494;SDS011;38405;53.212;5.660;2023-07-13T07:01:38;3.13;;;1.30;;
52494;SDS011;38405;53.212;5.660;2023-07-13T07:04:04;2.15;;;1.05;;
52494;SDS011;38405;53.212;5.660;2023-07-13T07:06:30;5.45;;;1.45;;
52494;SDS011;38405;53.212;5.660;2023-07-13T07:08:55;5.15;;;1.30;;
52494;SDS011;38405;53.212;5.660;2023-07-13T07:11:22;3.60;;;1.38;;
52494;SDS011;38405;53.212;5.660;2023-07-13T07:13:50;4.13;;;1.63;;
52494;SDS011;38405;53.212;5.660;2023-07-13T07:16:17;4.22;;;1.35;;
52494;SDS011;38405;53.212;5.660;2023-07-13T07:18:44;4.72;;;1.35;;
52494;SDS011;38405;53.212;5.660;2023-07-13T07:21:10;3.28;;;1.10;;
52494;SDS011;38405;53.212;5.660;2023-07-13T07:23:36;3.80;;;1.27;;
52494;SDS011;38405;53.212;5.660;2023-07-13T07:26:02;3.55;;;1.30;;
52494;SDS011;38405;53.212;5.660;2023-07-13T07:28:28;3.50;;;1.48;;
52494;SDS011;38405;53.212;5.660;2023-07-13T07:30:55;9.52;;;1.52;;
52494;SDS011;38405;53.212;5.660;2023-07-13T07:33:22;11.45;;;5.03;;
52494;SDS011;38405;53.212;5.660;2023-07-13T07:35:48;10.73;;;4.78;;
52494;SDS011;38405;53.212;5.660;2023-07-13T07:38:14;5.57;;;2.63;;
52494;SDS011;38405;53.212;5.660;2023-07-13T07:40:40;6.53;;;2.05;;
52494;SDS011;38405;53.212;5.660;2023-07-13T07:43:07;4.90;;;1.77;;
52494;SDS011;38405;53.212;5.660;2023-07-13T07:45:34;3.08;;;1.35;;
52494;SDS011;38405;53.212;5.660;2023-07-13T07:48:00;2.55;;;1.30;;
52494;SDS011;38405;53.212;5.660;2023-07-13T07:50:26;4.35;;;1.67;;
52494;SDS011;38405;53.212;5.660;2023-07-13T07:52:53;2.58;;;1.42;;
52494;SDS011;38405;53.212;5.660;2023-07-13T07:55:21;4.45;;;1.38;;
52494;SDS011;38405;53.212;5.660;2023-07-13T07:57:47;6.00;;;1.50;;
52494;SDS011;38405;53.212;5.660;2023-07-13T08:00:13;4.63;;;1.60;;
52494;SDS011;38405;53.212;5.660;2023-07-13T08:02:40;5.47;;;1.23;;
52494;SDS011;38405;53.212;5.660;2023-07-13T08:05:06;5.00;;;2.08;;
52494;SDS011;38405;53.212;5.660;2023-07-13T08:07:33;7.18;;;1.60;;
52494;SDS011;38405;53.212;5.660;2023-07-13T08:09:59;4.65;;;1.35;;
52494;SDS011;38405;53.212;5.660;2023-07-13T08:12:25;6.35;;;1.65;;
52494;SDS011;38405;53.212;5.660;2023-07-13T08:14:51;2.67;;;1.20;;
52494;SDS011;38405;53.212;5.660;2023-07-13T08:17:22;6.57;;;1.48;;
52494;SDS011;38405;53.212;5.660;2023-07-13T08:19:49;7.43;;;1.60;;
52494;SDS011;38405;53.212;5.660;2023-07-13T08:22:15;2.92;;;1.02;;
52494;SDS011;38405;53.212;5.660;2023-07-13T08:24:41;5.10;;;1.33;;
52494;SDS011;38405;53.212;5.660;2023-07-13T08:27:08;3.35;;;1.20;;
52494;SDS011;38405;53.212;5.660;2023-07-13T08:29:34;4.25;;;1.13;;
52494;SDS011;38405;53.212;5.660;2023-07-13T08:31:59;4.60;;;1.40;;
52494;SDS011;38405;53.212;5.660;2023-07-13T08:34:25;4.03;;;1.40;;
52494;SDS011;38405;53.212;5.660;2023-07-13T08:36:51;4.32;;;1.63;;
52494;SDS011;38405;53.212;5.660;2023-07-13T08:39:17;6.22;;;1.38;;
52494;SDS011;38405;53.212;5.660;2023-07-13T08:41:44;5.47;;;1.00;;
52494;SDS011;38405;53.212;5.660;2023-07-13T08:44:26;5.28;;;1.10;;
52494;SDS011;38405;53.212;5.660;2023-07-13T08:47:03;4.35;;;1.10;;
52494;SDS011;38405;53.212;5.660;2023-07-13T08:49:31;3.63;;;1.05;;
52494;SDS011;38405;53.212;5.660;2023-07-13T08:52:04;3.63;;;1.35;;
52494;SDS011;38405;53.212;5.660;2023-07-13T08:54:43;2.92;;;1.10;;
52494;SDS011;38405;53.212;5.660;2023-07-13T08:57:17;2.00;;;0.90;;
52494;SDS011;38405;53.212;5.660;2023-07-13T08:59:46;2.50;;;0.93;;
52494;SDS011;38405;53.212;5.660;2023-07-13T09:05:21;1.20;;;0.68;;
52494;SDS011;38405;53.212;5.660;2023-07-13T09:07:59;4.63;;;1.00;;
52494;SDS011;38405;53.212;5.660;2023-07-13T09:10:28;3.47;;;1.23;;
52494;SDS011;38405;53.212;5.660;2023-07-13T09:15:41;2.08;;;0.98;;
52494;SDS011;38405;53.212;5.660;2023-07-13T09:18:18;2.70;;;1.10;;
52494;SDS011;38405;53.212;5.660;2023-07-13T09:21:23;1.20;;;0.68;;
52494;SDS011;38405;53.212;5.660;2023-07-13T09:24:50;4.75;;;1.05;;
52494;SDS011;38405;53.212;5.660;2023-07-13T09:26:57;2.08;;;0.70;;
52494;SDS011;38405;53.212;5.660;2023-07-13T09:29:28;1.00;;;0.63;;
52494;SDS011;38405;53.212;5.660;2023-07-13T09:31:58;3.60;;;0.65;;
52494;SDS011;38405;53.212;5.660;2023-07-13T09:34:28;4.30;;;1.02;;
52494;SDS011;38405;53.212;5.660;2023-07-13T09:36:55;4.25;;;1.05;;
52494;SDS011;38405;53.212;5.660;2023-07-13T09:39:24;1.95;;;0.93;;
52494;SDS011;38405;53.212;5.660;2023-07-13T09:44:28;3.70;;;0.90;;
52494;SDS011;38405;53.212;5.660;2023-07-13T09:47:01;3.65;;;1.25;;
52494;SDS011;38405;53.212;5.660;2023-07-13T09:49:34;6.35;;;1.35;;
52494;SDS011;38405;53.212;5.660;2023-07-13T09:52:02;2.22;;;1.20;;
52494;SDS011;38405;53.212;5.660;2023-07-13T09:54:32;3.15;;;1.35;;
52494;SDS011;38405;53.212;5.660;2023-07-13T09:57:00;4.53;;;1.10;;
52494;SDS011;38405;53.212;5.660;2023-07-13T09:59:32;7.18;;;1.30;;
52494;SDS011;38405;53.212;5.660;2023-07-13T10:01:59;7.20;;;1.20;;
52494;SDS011;38405;53.212;5.660;2023-07-13T10:04:32;3.40;;;1.20;;
52494;SDS011;38405;53.212;5.660;2023-07-13T10:07:06;3.72;;;1.70;;
52494;SDS011;38405;53.212;5.660;2023-07-13T10:09:33;5.28;;;1.50;;
52494;SDS011;38405;53.212;5.660;2023-07-13T10:11:59;3.38;;;1.50;;
52494;SDS011;38405;53.212;5.660;2023-07-13T10:14:25;6.10;;;1.92;;
52494;SDS011;38405;53.212;5.660;2023-07-13T10:17:00;4.30;;;1.30;;
52494;SDS011;38405;53.212;5.660;2023-07-13T10:19:29;4.90;;;1.20;;
52494;SDS011;38405;53.212;5.660;2023-07-13T10:22:02;3.95;;;1.38;;
52494;SDS011;38405;53.212;5.660;2023-07-13T10:24:41;2.88;;;1.50;;
52494;SDS011;38405;53.212;5.660;2023-07-13T10:32:41;3.35;;;1.33;;
52494;SDS011;38405;53.212;5.660;2023-07-13T10:35:10;3.70;;;1.20;;
52494;SDS011;38405;53.212;5.660;2023-07-13T10:38:23;2.78;;;1.23;;
52494;SDS011;38405;53.212;5.660;2023-07-13T10:40:35;4.75;;;1.50;;
52494;SDS011;38405;53.212;5.660;2023-07-13T10:45:34;2.95;;;1.42;;
52494;SDS011;38405;53.212;5.660;2023-07-13T10:48:02;5.55;;;1.55;;
52494;SDS011;38405;53.212;5.660;2023-07-13T10:50:30;3.63;;;1.60;;
52494;SDS011;38405;53.212;5.660;2023-07-13T10:53:19;5.70;;;1.90;;
52494;SDS011;38405;53.212;5.660;2023-07-13T10:58:38;5.13;;;2.25;;
52494;SDS011;38405;53.212;5.660;2023-07-13T11:03:32;7.10;;;1.60;;
52494;SDS011;38405;53.212;5.660;2023-07-13T11:18:49;8.75;;;1.80;;
52494;SDS011;38405;53.212;5.660;2023-07-13T11:21:34;5.00;;;1.83;;
52494;SDS011;38405;53.212;5.660;2023-07-13T11:24:04;5.00;;;1.77;;
52494;SDS011;38405;53.212;5.660;2023-07-13T11:31:57;4.22;;;1.60;;
52494;SDS011;38405;53.212;5.660;2023-07-13T11:34:45;7.18;;;1.98;;
52494;SDS011;38405;53.212;5.660;2023-07-13T11:37:12;5.10;;;1.67;;
52494;SDS011;38405;53.212;5.660;2023-07-13T11:39:41;6.75;;;1.70;;
52494;SDS011;38405;53.212;5.660;2023-07-13T11:42:10;9.00;;;1.88;;
52494;SDS011;38405;53.212;5.660;2023-07-13T11:44:48;4.70;;;1.70;;
52494;SDS011;38405;53.212;5.660;2023-07-13T11:47:17;5.30;;;2.00;;
52494;SDS011;38405;53.212;5.660;2023-07-13T11:49:51;13.77;;;2.33;;
52494;SDS011;38405;53.212;5.660;2023-07-13T11:52:21;7.72;;;2.13;;
52494;SDS011;38405;53.212;5.660;2023-07-13T11:54:56;6.83;;;1.90;;
52494;SDS011;38405;53.212;5.660;2023-07-13T12:00:11;4.05;;;1.75;;
52494;SDS011;38405;53.212;5.660;2023-07-13T12:02:43;6.32;;;1.83;;
52494;SDS011;38405;53.212;5.660;2023-07-13T12:05:14;5.47;;;2.17;;
52494;SDS011;38405;53.212;5.660;2023-07-13T12:07:42;7.13;;;2.30;;
52494;SDS011;38405;53.212;5.660;2023-07-13T12:13:01;4.75;;;1.98;;
52494;SDS011;38405;53.212;5.660;2023-07-13T12:15:38;9.80;;;1.80;;
52494;SDS011;38405;53.212;5.660;2023-07-13T12:18:13;4.20;;;1.80;;
52494;SDS011;38405;53.212;5.660;2023-07-13T12:20:40;7.55;;;2.28;;
52494;SDS011;38405;53.212;5.660;2023-07-13T12:23:14;5.38;;;1.85;;
52494;SDS011;38405;53.212;5.660;2023-07-13T12:26:01;12.43;;;2.08;;
52494;SDS011;38405;53.212;5.660;2023-07-13T12:31:01;12.43;;;2.42;;
52494;SDS011;38405;53.212;5.660;2023-07-13T12:33:47;12.27;;;2.70;;
52494;SDS011;38405;53.212;5.660;2023-07-13T12:36:13;7.63;;;2.22;;
52494;SDS011;38405;53.212;5.660;2023-07-13T12:38:39;7.55;;;2.38;;
52494;SDS011;38405;53.212;5.660;2023-07-13T12:41:05;5.28;;;2.10;;
52494;SDS011;38405;53.212;5.660;2023-07-13T12:43:35;5.50;;;2.30;;
52494;SDS011;38405;53.212;5.660;2023-07-13T12:46:15;6.00;;;2.15;;
52494;SDS011;38405;53.212;5.660;2023-07-13T12:51:21;5.72;;;2.28;;
52494;SDS011;38405;53.212;5.660;2023-07-13T12:53:50;6.93;;;1.88;;
52494;SDS011;38405;53.212;5.660;2023-07-13T12:56:22;4.55;;;2.22;;
52494;SDS011;38405;53.212;5.660;2023-07-13T12:58:50;8.15;;;2.10;;
52494;SDS011;38405;53.212;5.660;2023-07-13T13:01:22;8.83;;;2.73;;
52494;SDS011;38405;53.212;5.660;2023-07-13T13:03:52;6.18;;;2.08;;
52494;SDS011;38405;53.212;5.660;2023-07-13T13:08:47;8.43;;;2.05;;
52494;SDS011;38405;53.212;5.660;2023-07-13T13:11:23;8.95;;;2.30;;
52494;SDS011;38405;53.212;5.660;2023-07-13T13:13:51;6.90;;;2.10;;
52494;SDS011;38405;53.212;5.660;2023-07-13T13:18:57;3.50;;;1.70;;
52494;SDS011;38405;53.212;5.660;2023-07-13T13:21:25;8.00;;;2.10;;
52494;SDS011;38405;53.212;5.660;2023-07-13T13:23:51;9.35;;;2.10;;
52494;SDS011;38405;53.212;5.660;2023-07-13T13:26:18;6.55;;;2.03;;
52494;SDS011;38405;53.212;5.660;2023-07-13T13:28:45;9.20;;;2.20;;
52494;SDS011;38405;53.212;5.660;2023-07-13T13:31:13;5.70;;;2.25;;
52494;SDS011;38405;53.212;5.660;2023-07-13T13:33:43;6.95;;;2.03;;
52494;SDS011;38405;53.212;5.660;2023-07-13T13:36:20;8.90;;;2.28;;
52494;SDS011;38405;53.212;5.660;2023-07-13T13:38:48;11.00;;;2.47;;
52494;SDS011;38405;53.212;5.660;2023-07-13T13:41:15;6.05;;;2.00;;
52494;SDS011;38405;53.212;5.660;2023-07-13T13:43:41;7.55;;;2.17;;
52494;SDS011;38405;53.212;5.660;2023-07-13T13:46:19;9.95;;;2.30;;
52494;SDS011;38405;53.212;5.660;2023-07-13T13:48:47;8.05;;;2.45;;
52494;SDS011;38405;53.212;5.660;2023-07-13T13:51:20;11.88;;;2.35;;
52494;SDS011;38405;53.212;5.660;2023-07-13T13:53:48;8.45;;;2.03;;
52494;SDS011;38405;53.212;5.660;2023-07-13T13:56:15;6.63;;;2.50;;
52494;SDS011;38405;53.212;5.660;2023-07-13T13:58:42;9.23;;;2.45;;
52494;SDS011;38405;53.212;5.660;2023-07-13T14:01:26;6.65;;;2.10;;
52494;SDS011;38405;53.212;5.660;2023-07-13T14:03:54;9.32;;;2.10;;
52494;SDS011;38405;53.212;5.660;2023-07-13T14:06:20;5.03;;;1.90;;
52494;SDS011;38405;53.212;5.660;2023-07-13T14:08:45;11.50;;;2.50;;
52494;SDS011;38405;53.212;5.660;2023-07-13T14:11:12;11.45;;;2.47;;
52494;SDS011;38405;53.212;5.660;2023-07-13T14:13:43;6.18;;;2.40;;
52494;SDS011;38405;53.212;5.660;2023-07-13T14:16:18;7.78;;;2.05;;
52494;SDS011;38405;53.212;5.660;2023-07-13T14:18:46;9.50;;;2.43;;
52494;SDS011;38405;53.212;5.660;2023-07-13T14:21:13;5.88;;;2.28;;
52494;SDS011;38405;53.212;5.660;2023-07-13T14:23:40;6.82;;;2.30;;
52494;SDS011;38405;53.212;5.660;2023-07-13T14:26:08;6.28;;;2.45;;
52494;SDS011;38405;53.212;5.660;2023-07-13T14:28:37;6.25;;;2.20;;
52494;SDS011;38405;53.212;5.660;2023-07-13T14:31:09;9.23;;;2.20;;
52494;SDS011;38405;53.212;5.660;2023-07-13T14:33:35;9.98;;;2.53;;
52494;SDS011;38405;53.212;5.660;2023-07-13T14:36:02;3.78;;;1.98;;
52494;SDS011;38405;53.212;5.660;2023-07-13T14:41:00;7.35;;;2.60;;
52494;SDS011;38405;53.212;5.660;2023-07-13T14:43:25;6.88;;;2.42;;
52494;SDS011;38405;53.212;5.660;2023-07-13T14:45:54;4.97;;;2.47;;
52494;SDS011;38405;53.212;5.660;2023-07-13T14:48:22;12.48;;;3.00;;
52494;SDS011;38405;53.212;5.660;2023-07-13T14:50:56;6.88;;;2.47;;
52494;SDS011;38405;53.212;5.660;2023-07-13T14:53:24;7.60;;;2.63;;
52494;SDS011;38405;53.212;5.660;2023-07-13T14:55:52;7.07;;;2.28;;
52494;SDS011;38405;53.212;5.660;2023-07-13T14:58:18;6.05;;;2.42;;
52494;SDS011;38405;53.212;5.660;2023-07-13T15:00:44;8.35;;;2.92;;
52494;SDS011;38405;53.212;5.660;2023-07-13T15:03:20;6.30;;;2.35;;
52494;SDS011;38405;53.212;5.660;2023-07-13T15:05:48;6.57;;;2.33;;
52494;SDS011;38405;53.212;5.660;2023-07-13T15:08:14;10.10;;;2.80;;
52494;SDS011;38405;53.212;5.660;2023-07-13T15:10:40;8.13;;;2.20;;
52494;SDS011;38405;53.212;5.660;2023-07-13T15:13:17;5.85;;;2.38;;
52494;SDS011;38405;53.212;5.660;2023-07-13T15:15:48;8.68;;;2.63;;
52494;SDS011;38405;53.212;5.660;2023-07-13T15:18:19;10.07;;;2.60;;
52494;SDS011;38405;53.212;5.660;2023-07-13T15:20:48;8.10;;;2.03;;
52494;SDS011;38405;53.212;5.660;2023-07-13T15:23:16;5.60;;;2.35;;
52494;SDS011;38405;53.212;5.660;2023-07-13T15:25:43;8.00;;;2.28;;
52494;SDS011;38405;53.212;5.660;2023-07-13T15:28:10;8.30;;;2.30;;
52494;SDS011;38405;53.212;5.660;2023-07-13T15:30:42;9.23;;;2.65;;
52494;SDS011;38405;53.212;5.660;2023-07-13T15:33:14;7.20;;;2.38;;
52494;SDS011;38405;53.212;5.660;2023-07-13T15:35:52;6.95;;;2.75;;
52494;SDS011;38405;53.212;5.660;2023-07-13T15:38:23;8.07;;;2.78;;
52494;SDS011;38405;53.212;5.660;2023-07-13T15:40:50;8.77;;;2.72;;
52494;SDS011;38405;53.212;5.660;2023-07-13T15:43:18;9.50;;;2.60;;
52494;SDS011;38405;53.212;5.660;2023-07-13T15:46:17;9.13;;;2.55;;
52494;SDS011;38405;53.212;5.660;2023-07-13T15:48:47;8.82;;;2.70;;
52494;SDS011;38405;53.212;5.660;2023-07-13T15:51:17;10.55;;;2.85;;
52494;SDS011;38405;53.212;5.660;2023-07-13T15:53:55;8.48;;;2.63;;